EPKT

Katowice International Airport

Katowice, Poland
METAR EPKT 221430Z 26012KT CAVOK 16/04 Q1019
Observed Flight Rules
Sep-22 @ 14:30 UTC (37 minutes ago) Visual Flight Rules
Wind Visibility Clouds
260° at 12 knots 10,000+ meters
Temperatures Readings
Current 16°C / 61°F
Dewpoint 4°C / 39°F
Humidity 45%
Altimeter 30.09" Hg
Pressure 1019 hPa
Elevation 284
METAR EPKT 221430Z 26012KT CAVOK 16/04 Q1019
Observed Flight Rules
Sep-22 @ 14:30 UTC
(37 minutes ago)
VFR
Wind Visibility
260° at 12 knots 10,000+ meters
Clouds
Temperature Dewpoint
16°C / 61°F 4°C / 39°F
Humidity Altimeter Pressure
45% 30.09" Hg 1019 hPa